Time;durP1;ratioP1;P1;durP2;ratioP2;P2;SDS_P1;SDS_P2;PMS_P1;PMS_P2;Temp;Humidity;BMP_temperature;BMP_pressure;BME280_temperature;BME280_humidity;BME280_pressure;Samples;Min_cycle;Max_cycle;Signal;HPM_P1;HPM_P2
2023/02/17 00:03:04;;;;;;;36.00;12.47;;;;;;;;;;6210386;28;20550;-80
2023/02/17 00:06:12;;;;;;;35.43;12.77;;;;;;;;;;6210633;28;20485;-81
2023/02/17 00:09:17;;;;;;;40.00;12.57;;;;;;;;;;6210075;28;20596;-80
2023/02/17 00:12:22;;;;;;;41.57;12.67;;;;;;;;;;6210463;28;20299;-81
2023/02/17 00:15:27;;;;;;;34.23;12.70;;;;;;;;;;6213603;28;20295;-80
2023/02/17 00:18:34;;;;;;;30.20;11.97;;;;;;;;;;6215354;28;20300;-81
2023/02/17 00:21:39;;;;;;;33.13;12.17;;;;;;;;;;6215085;28;20304;-81
2023/02/17 00:24:44;;;;;;;32.93;11.83;;;;;;;;;;6214700;28;20299;-81
2023/02/17 00:27:49;;;;;;;33.43;12.03;;;;;;;;;;6215029;28;20315;-81
2023/02/17 00:30:54;;;;;;;25.63;10.70;;;;;;;;;;6213674;28;20296;-80
2023/02/17 00:34:01;;;;;;;31.27;12.33;;;;;;;;;;6204360;28;20299;-81
2023/02/17 00:37:08;;;;;;;28.60;11.17;;;;;;;;;;6213841;28;20297;-80
2023/02/17 00:40:14;;;;;;;30.40;12.03;;;;;;;;;;6214068;28;20308;-81
2023/02/17 00:43:19;;;;;;;28.90;11.23;;;;;;;;;;6213830;28;20611;-79
2023/02/17 00:46:25;;;;;;;30.17;11.73;;;;;;;;;;6229251;28;20395;-80
2023/02/17 00:49:32;;;;;;;27.73;11.43;;;;;;;;;;6213636;28;20295;-80
2023/02/17 00:52:39;;;;;;;28.67;11.53;;;;;;;;;;6213531;28;20299;-81
2023/02/17 00:55:45;;;;;;;30.80;11.77;;;;;;;;;;6196664;28;20304;-80
2023/02/17 00:58:51;;;;;;;32.43;11.37;;;;;;;;;;6215171;28;20297;-81
2023/02/17 01:01:56;;;;;;;22.93;10.70;;;;;;;;;;6214403;28;20300;-81
2023/02/17 01:05:03;;;;;;;32.13;11.60;;;;;;;;;;6213775;28;20311;-81
2023/02/17 01:08:08;;;;;;;27.30;10.77;;;;;;;;;;6213480;28;20296;-80
2023/02/17 01:11:18;;;;;;;24.67;11.40;;;;;;;;;;6214510;28;20431;-79
2023/02/17 01:14:23;;;;;;;28.40;11.20;;;;;;;;;;6215359;28;20300;-80
2023/02/17 01:17:32;;;;;;;20.87;10.43;;;;;;;;;;6218614;28;20288;-81
2023/02/17 01:20:40;;;;;;;31.87;11.23;;;;;;;;;;6224999;28;20393;-79
2023/02/17 01:23:45;;;;;;;25.53;10.40;;;;;;;;;;6229087;28;20221;-81
2023/02/17 01:26:50;;;;;;;24.80;10.30;;;;;;;;;;6228618;28;20280;-79
2023/02/17 01:29:56;;;;;;;20.03;10.17;;;;;;;;;;6227301;28;20300;-80
2023/02/17 01:33:04;;;;;;;28.80;10.93;;;;;;;;;;6229021;28;20264;-79
2023/02/17 01:36:14;;;;;;;28.53;10.30;;;;;;;;;;6228227;28;20257;-81
2023/02/17 01:39:19;;;;;;;21.13;9.90;;;;;;;;;;6216698;28;20297;-80
2023/02/17 01:42:24;;;;;;;31.83;9.67;;;;;;;;;;6228138;28;20304;-80
2023/02/17 01:45:45;;;;;;;22.90;9.60;;;;;;;;;;6212033;28;20455;-80
2023/02/17 01:48:51;;;;;;;26.47;9.27;;;;;;;;;;6213362;28;20297;-79
2023/02/17 01:52:02;;;;;;;20.83;9.43;;;;;;;;;;6212936;28;20319;-81
2023/02/17 01:55:12;;;;;;;24.67;9.83;;;;;;;;;;6211591;28;20298;-80
2023/02/17 01:58:20;;;;;;;22.97;9.10;;;;;;;;;;6228487;28;20301;-81
2023/02/17 02:01:25;;;;;;;26.03;9.57;;;;;;;;;;6211426;28;20597;-80
2023/02/17 02:04:33;;;;;;;22.87;9.97;;;;;;;;;;6233970;23;20305;-80
2023/02/17 02:07:42;;;;;;;23.13;9.37;;;;;;;;;;6202788;28;20297;-79
2023/02/17 02:10:48;;;;;;;26.60;9.93;;;;;;;;;;6187058;28;20302;-79
2023/02/17 02:13:53;;;;;;;27.37;9.40;;;;;;;;;;6207059;28;20292;-79
2023/02/17 02:17:07;;;;;;;21.50;9.50;;;;;;;;;;6209857;28;20301;-80
2023/02/17 02:20:41;;;;;;;24.37;9.53;;;;;;;;;;6211108;28;20292;-79
2023/02/17 02:24:07;;;;;;;26.50;8.50;;;;;;;;;;6215291;28;20465;-79
2023/02/17 02:27:42;;;;;;;26.43;9.80;;;;;;;;;;6209824;28;20304;-80
2023/02/17 02:31:12;;;;;;;29.00;8.73;;;;;;;;;;6210302;28;20296;-78
2023/02/17 02:34:22;;;;;;;20.63;8.40;;;;;;;;;;6210829;28;20289;-81
2023/02/17 02:37:32;;;;;;;19.10;8.53;;;;;;;;;;6209107;28;20290;-79
2023/02/17 02:40:41;;;;;;;24.43;9.50;;;;;;;;;;6209057;28;20305;-81
2023/02/17 02:43:48;;;;;;;22.37;8.47;;;;;;;;;;6210706;28;20290;-79
2023/02/17 02:46:58;;;;;;;23.23;8.57;;;;;;;;;;6225055;28;20436;-80
2023/02/17 02:50:08;;;;;;;19.87;7.90;;;;;;;;;;6209449;28;20302;-80
2023/02/17 02:53:48;;;;;;;20.37;9.13;;;;;;;;;;6209463;28;20306;-79
2023/02/17 02:57:05;;;;;;;20.47;9.27;;;;;;;;;;6213760;28;20344;-78
2023/02/17 03:00:18;;;;;;;16.90;7.70;;;;;;;;;;6209385;28;20303;-79
2023/02/17 03:03:29;;;;;;;25.30;8.90;;;;;;;;;;6168745;28;1206357;-78
2023/02/17 03:06:40;;;;;;;20.47;9.13;;;;;;;;;;6209832;28;20314;-80
2023/02/17 03:09:46;;;;;;;16.67;8.57;;;;;;;;;;6193463;28;20313;-79
2023/02/17 03:12:54;;;;;;;25.17;9.17;;;;;;;;;;6225825;28;20304;-79
2023/02/17 03:15:59;;;;;;;20.93;8.77;;;;;;;;;;6225788;28;20321;-79
2023/02/17 03:19:05;;;;;;;23.97;9.63;;;;;;;;;;6226216;28;20290;-80
2023/02/17 03:22:18;;;;;;;26.00;9.07;;;;;;;;;;6225774;28;20498;-79
2023/02/17 03:25:24;;;;;;;28.20;9.37;;;;;;;;;;6210856;28;20302;-78
2023/02/17 03:28:30;;;;;;;28.20;10.57;;;;;;;;;;6209654;28;20506;-79
2023/02/17 03:31:35;;;;;;;26.90;9.43;;;;;;;;;;6225570;28;20314;-79
2023/02/17 03:34:40;;;;;;;30.80;10.27;;;;;;;;;;6210607;28;20290;-81
2023/02/17 03:37:47;;;;;;;30.77;9.50;;;;;;;;;;6211295;28;20303;-79
2023/02/17 03:40:53;;;;;;;28.60;9.83;;;;;;;;;;6210837;28;20298;-80
2023/02/17 03:43:58;;;;;;;19.73;9.37;;;;;;;;;;6211192;28;20642;-80
2023/02/17 03:47:04;;;;;;;28.97;9.70;;;;;;;;;;6210735;28;20352;-79
2023/02/17 03:50:11;;;;;;;25.20;9.60;;;;;;;;;;6213723;28;20479;-80
2023/02/17 03:53:18;;;;;;;32.73;9.87;;;;;;;;;;6215568;28;20387;-80
2023/02/17 03:56:23;;;;;;;26.27;9.53;;;;;;;;;;6214057;28;20297;-79
2023/02/17 03:59:29;;;;;;;27.93;10.03;;;;;;;;;;6215402;28;20324;-80
2023/02/17 04:02:34;;;;;;;28.90;10.23;;;;;;;;;;6212386;28;20298;-79
2023/02/17 04:05:39;;;;;;;21.10;9.53;;;;;;;;;;6207884;28;20294;-79
2023/02/17 04:08:46;;;;;;;20.83;9.43;;;;;;;;;;6189641;28;20297;-79
2023/02/17 04:11:51;;;;;;;27.20;10.03;;;;;;;;;;6202142;28;20292;-79
2023/02/17 04:15:03;;;;;;;24.00;9.40;;;;;;;;;;6190722;28;20556;-80
2023/02/17 04:18:11;;;;;;;27.10;9.60;;;;;;;;;;6190809;28;20291;-80
2023/02/17 04:21:16;;;;;;;24.13;9.53;;;;;;;;;;6198120;28;20296;-80
2023/02/17 04:24:22;;;;;;;25.50;10.63;;;;;;;;;;6165292;28;20300;-79
2023/02/17 04:27:28;;;;;;;21.63;9.33;;;;;;;;;;6167125;28;20292;-79
2023/02/17 04:30:33;;;;;;;29.67;10.03;;;;;;;;;;6166504;28;20283;-80
2023/02/17 04:33:38;;;;;;;22.47;9.47;;;;;;;;;;6167005;28;20303;-79
2023/02/17 04:36:43;;;;;;;28.13;9.63;;;;;;;;;;6188167;28;20303;-79
2023/02/17 04:39:50;;;;;;;21.93;9.43;;;;;;;;;;6214748;28;20299;-79
2023/02/17 04:42:57;;;;;;;26.07;9.73;;;;;;;;;;6229262;28;20295;-79
2023/02/17 04:46:02;;;;;;;26.67;10.07;;;;;;;;;;6214929;28;20295;-79
2023/02/17 04:49:08;;;;;;;26.13;10.00;;;;;;;;;;6213575;28;20475;-79
2023/02/17 04:52:14;;;;;;;27.87;10.33;;;;;;;;;;6213680;28;20304;-79
2023/02/17 04:55:21;;;;;;;30.63;10.43;;;;;;;;;;6212713;28;20298;-80
2023/02/17 04:58:26;;;;;;;26.47;9.53;;;;;;;;;;6212854;28;20552;-79
2023/02/17 05:01:31;;;;;;;26.47;10.67;;;;;;;;;;6214120;28;20302;-79
2023/02/17 05:04:37;;;;;;;33.73;10.33;;;;;;;;;;6213379;28;20308;-80
2023/02/17 05:07:42;;;;;;;23.63;10.03;;;;;;;;;;6228697;28;20303;-79
2023/02/17 05:10:57;;;;;;;31.93;10.07;;;;;;;;;;6202077;28;20337;-80
2023/02/17 05:14:03;;;;;;;20.80;10.60;;;;;;;;;;6213658;28;20597;-80
2023/02/17 05:17:08;;;;;;;24.33;9.17;;;;;;;;;;6229072;28;20350;-79
2023/02/17 05:20:14;;;;;;;25.30;9.47;;;;;;;;;;6213792;28;20298;-79
2023/02/17 05:23:19;;;;;;;19.07;9.63;;;;;;;;;;6212920;28;20463;-80
2023/02/17 05:26:26;;;;;;;22.33;9.57;;;;;;;;;;6214202;28;20306;-79
2023/02/17 05:29:34;;;;;;;27.40;9.67;;;;;;;;;;6202943;28;20486;-79
2023/02/17 05:32:40;;;;;;;23.03;10.40;;;;;;;;;;6212163;28;20294;-79
2023/02/17 05:35:45;;;;;;;31.27;10.40;;;;;;;;;;6213802;28;20303;-79
2023/02/17 05:38:50;;;;;;;26.27;10.53;;;;;;;;;;6213008;28;20594;-80
2023/02/17 05:41:57;;;;;;;26.27;10.07;;;;;;;;;;6213921;28;20307;-78
2023/02/17 05:45:03;;;;;;;22.10;9.77;;;;;;;;;;6211630;28;20301;-79
2023/02/17 05:48:09;;;;;;;29.00;10.87;;;;;;;;;;6212733;28;20315;-79
2023/02/17 05:51:16;;;;;;;28.83;10.80;;;;;;;;;;6213509;28;20294;-79
2023/02/17 05:54:21;;;;;;;25.10;10.97;;;;;;;;;;6212873;28;20470;-80
2023/02/17 05:57:28;;;;;;;25.03;9.90;;;;;;;;;;6213261;28;20578;-79
2023/02/17 06:00:33;;;;;;;27.57;10.57;;;;;;;;;;6212935;28;20478;-79
2023/02/17 06:03:38;;;;;;;26.03;10.20;;;;;;;;;;6212227;28;20299;-79
2023/02/17 06:06:44;;;;;;;25.03;10.30;;;;;;;;;;6211281;28;20294;-79
2023/02/17 06:09:49;;;;;;;23.97;10.40;;;;;;;;;;6224691;28;20290;-80
2023/02/17 06:12:56;;;;;;;24.17;10.23;;;;;;;;;;6217611;28;20304;-80
2023/02/17 06:16:01;;;;;;;29.90;9.90;;;;;;;;;;6212805;28;20299;-79
2023/02/17 06:19:06;;;;;;;24.30;10.33;;;;;;;;;;6212150;28;20298;-79
2023/02/17 06:22:12;;;;;;;24.90;9.63;;;;;;;;;;6211646;28;20295;-80
2023/02/17 06:25:18;;;;;;;20.57;9.30;;;;;;;;;;6212236;28;20302;-78
2023/02/17 06:28:24;;;;;;;19.00;9.07;;;;;;;;;;6212279;28;20295;-77
2023/02/17 06:31:30;;;;;;;27.47;9.87;;;;;;;;;;6212799;28;20291;-77
2023/02/17 06:34:35;;;;;;;21.00;9.27;;;;;;;;;;6211541;28;20306;-78
2023/02/17 06:37:41;;;;;;;19.10;8.97;;;;;;;;;;6194168;28;20298;-77
2023/02/17 06:40:47;;;;;;;21.87;9.77;;;;;;;;;;6210994;28;20417;-79
2023/02/17 06:43:53;;;;;;;27.40;9.33;;;;;;;;;;6211832;28;20302;-78
2023/02/17 06:46:58;;;;;;;21.83;9.77;;;;;;;;;;6211678;28;20615;-77
2023/02/17 06:50:04;;;;;;;23.83;9.47;;;;;;;;;;6211682;28;20451;-78
2023/02/17 06:53:09;;;;;;;25.17;10.23;;;;;;;;;;6211417;28;20309;-79
2023/02/17 06:56:15;;;;;;;27.60;9.60;;;;;;;;;;6212230;28;20295;-78
2023/02/17 06:59:21;;;;;;;34.57;10.20;;;;;;;;;;6211630;28;20306;-77
2023/02/17 07:02:27;;;;;;;22.77;9.03;;;;;;;;;;6211707;28;20322;-78
2023/02/17 07:05:34;;;;;;;17.70;8.43;;;;;;;;;;6210490;28;20307;-78
2023/02/17 07:08:39;;;;;;;24.97;9.33;;;;;;;;;;6210809;28;20295;-77
2023/02/17 07:11:44;;;;;;;26.53;9.63;;;;;;;;;;6199221;28;20270;-79
2023/02/17 07:14:53;;;;;;;17.63;8.37;;;;;;;;;;6211446;28;20302;-77
2023/02/17 07:17:59;;;;;;;22.07;8.77;;;;;;;;;;6211268;28;20294;-78
2023/02/17 07:21:04;;;;;;;18.93;8.70;;;;;;;;;;6211599;28;20300;-78
2023/02/17 07:24:11;;;;;;;19.90;8.77;;;;;;;;;;6225102;28;20314;-76
2023/02/17 07:27:16;;;;;;;17.13;8.00;;;;;;;;;;6211623;28;20286;-79
2023/02/17 07:30:22;;;;;;;15.60;7.97;;;;;;;;;;6211177;28;20301;-77
2023/02/17 07:33:28;;;;;;;17.33;7.97;;;;;;;;;;6210555;28;20586;-78
2023/02/17 07:36:33;;;;;;;27.33;8.43;;;;;;;;;;6211171;28;20291;-78
2023/02/17 07:39:38;;;;;;;15.77;8.00;;;;;;;;;;6211083;28;20591;-78
2023/02/17 07:42:46;;;;;;;18.40;7.70;;;;;;;;;;6193588;28;20310;-78
2023/02/17 07:45:56;;;;;;;21.83;7.50;;;;;;;;;;6211277;28;20309;-79
2023/02/17 07:49:03;;;;;;;14.43;7.10;;;;;;;;;;6210626;28;20295;-78
2023/02/17 07:52:12;;;;;;;16.47;7.37;;;;;;;;;;6211024;28;20291;-78
2023/02/17 07:55:17;;;;;;;14.63;7.20;;;;;;;;;;6210461;28;20298;-78
2023/02/17 07:58:23;;;;;;;16.23;6.67;;;;;;;;;;6225563;28;20482;-78
2023/02/17 08:01:29;;;;;;;12.83;6.80;;;;;;;;;;6211118;28;20290;-78
2023/02/17 08:04:35;;;;;;;12.60;7.03;;;;;;;;;;6210192;28;20307;-77
2023/02/17 08:07:40;;;;;;;15.17;6.67;;;;;;;;;;6210398;28;20603;-78
2023/02/17 08:14:08;;;;;;;17.40;6.17;;;;;;;;;;6210507;28;20308;-77
2023/02/17 08:17:17;;;;;;;12.07;6.77;;;;;;;;;;6210909;28;20291;-78
2023/02/17 08:20:22;;;;;;;16.60;6.90;;;;;;;;;;6210489;28;20312;-77
2023/02/17 08:23:28;;;;;;;13.33;6.13;;;;;;;;;;6210253;28;20317;-77
2023/02/17 08:26:33;;;;;;;14.13;7.20;;;;;;;;;;6200753;28;20301;-77
2023/02/17 08:29:39;;;;;;;15.13;6.50;;;;;;;;;;6185127;28;20297;-77
2023/02/17 08:32:47;;;;;;;16.03;6.63;;;;;;;;;;6184541;28;20305;-77
2023/02/17 08:35:52;;;;;;;15.80;6.27;;;;;;;;;;6188302;28;20300;-77
2023/02/17 08:38:58;;;;;;;15.13;6.00;;;;;;;;;;6189351;28;20295;-77
2023/02/17 08:42:04;;;;;;;16.10;6.70;;;;;;;;;;6206047;28;20312;-77
2023/02/17 08:45:14;;;;;;;15.80;6.30;;;;;;;;;;6205171;28;20319;-77
2023/02/17 08:48:20;;;;;;;15.70;6.40;;;;;;;;;;6190829;28;20300;-78
2023/02/17 08:51:26;;;;;;;15.70;6.37;;;;;;;;;;6190546;28;20580;-79
2023/02/17 08:54:31;;;;;;;14.07;6.33;;;;;;;;;;6189849;28;20309;-78
2023/02/17 08:57:37;;;;;;;21.03;6.27;;;;;;;;;;6190058;28;20292;-78
2023/02/17 09:00:42;;;;;;;14.07;6.17;;;;;;;;;;6190694;28;20292;-77
2023/02/17 09:03:50;;;;;;;12.13;6.60;;;;;;;;;;6188328;28;20602;-78
2023/02/17 09:06:57;;;;;;;11.77;6.03;;;;;;;;;;6190601;28;20304;-78
2023/02/17 09:10:02;;;;;;;15.17;6.00;;;;;;;;;;6194510;28;20327;-77
2023/02/17 09:13:07;;;;;;;15.70;6.70;;;;;;;;;;6197197;28;20293;-78
2023/02/17 09:16:12;;;;;;;20.70;6.87;;;;;;;;;;6190253;28;20329;-77
2023/02/17 09:19:20;;;;;;;16.67;7.20;;;;;;;;;;6188331;28;20303;-78
2023/02/17 09:22:25;;;;;;;12.60;7.00;;;;;;;;;;6190263;28;20296;-77
2023/02/17 09:25:36;;;;;;;13.10;5.80;;;;;;;;;;6188423;28;20305;-77
2023/02/17 09:28:42;;;;;;;13.00;7.07;;;;;;;;;;6188040;28;20300;-77
2023/02/17 09:31:47;;;;;;;10.60;6.70;;;;;;;;;;6190049;28;20313;-78
2023/02/17 09:34:54;;;;;;;15.70;6.57;;;;;;;;;;6189450;28;20301;-77
2023/02/17 09:38:00;;;;;;;20.63;6.80;;;;;;;;;;6189905;28;20463;-77
2023/02/17 09:41:15;;;;;;;11.37;6.57;;;;;;;;;;6189698;28;20487;-79
2023/02/17 09:44:22;;;;;;;12.90;6.47;;;;;;;;;;6188963;28;20296;-78
2023/02/17 09:47:31;;;;;;;12.10;6.13;;;;;;;;;;6188816;28;20305;-77
2023/02/17 09:50:43;;;;;;;15.30;6.23;;;;;;;;;;6187239;28;20301;-78
2023/02/17 09:53:53;;;;;;;13.10;6.00;;;;;;;;;;6189203;28;20305;-79
2023/02/17 09:57:00;;;;;;;13.20;5.87;;;;;;;;;;6189769;28;20448;-78
2023/02/17 10:00:11;;;;;;;18.70;6.47;;;;;;;;;;6188914;28;20296;-78
2023/02/17 10:03:19;;;;;;;7.43;5.87;;;;;;;;;;6187903;28;20507;-79
2023/02/17 10:06:27;;;;;;;10.77;6.00;;;;;;;;;;6188995;28;20468;-77
2023/02/17 10:09:36;;;;;;;11.10;6.03;;;;;;;;;;6189271;28;20293;-78
2023/02/17 10:12:45;;;;;;;12.17;6.50;;;;;;;;;;6199139;28;20584;-78
2023/02/17 10:15:52;;;;;;;10.87;6.23;;;;;;;;;;6188341;28;20292;-79
2023/02/17 10:19:00;;;;;;;10.27;5.77;;;;;;;;;;6188308;28;20313;-77
2023/02/17 10:22:13;;;;;;;16.47;6.20;;;;;;;;;;6203451;28;20378;-79
2023/02/17 10:25:20;;;;;;;9.00;5.97;;;;;;;;;;6187484;28;20456;-78
2023/02/17 10:28:42;;;;;;;13.83;6.53;;;;;;;;;;6186414;28;20305;-78
2023/02/17 10:31:48;;;;;;;11.20;6.60;;;;;;;;;;6188572;28;20301;-78
2023/02/17 10:35:14;;;;;;;12.37;6.33;;;;;;;;;;6187847;28;20285;-78
2023/02/17 10:38:36;;;;;;;12.80;6.43;;;;;;;;;;6187967;28;20296;-77
2023/02/17 10:41:42;;;;;;;18.10;7.00;;;;;;;;;;6187125;28;20277;-77
2023/02/17 10:44:50;;;;;;;12.97;7.23;;;;;;;;;;6186535;28;20296;-80
2023/02/17 10:47:59;;;;;;;13.57;7.47;;;;;;;;;;6186544;28;20309;-78
2023/02/17 10:51:05;;;;;;;18.13;6.73;;;;;;;;;;6187721;28;20304;-78
2023/02/17 10:54:22;;;;;;;20.03;7.53;;;;;;;;;;6187311;28;20296;-77
2023/02/17 10:57:31;;;;;;;14.53;6.87;;;;;;;;;;6187561;28;20582;-77
2023/02/17 11:00:38;;;;;;;15.57;6.87;;;;;;;;;;6187394;28;20588;-77
2023/02/17 11:03:43;;;;;;;19.17;7.50;;;;;;;;;;6185326;28;20316;-77
2023/02/17 11:06:50;;;;;;;15.03;7.50;;;;;;;;;;6202759;28;20301;-78
2023/02/17 11:10:01;;;;;;;15.07;7.80;;;;;;;;;;6190920;28;20291;-79
2023/02/17 11:13:28;;;;;;;14.00;7.97;;;;;;;;;;6194817;28;20298;-79
2023/02/17 11:16:38;;;;;;;18.40;8.27;;;;;;;;;;6185851;28;20312;-78
2023/02/17 11:19:43;;;;;;;17.30;7.80;;;;;;;;;;6186870;28;20346;-78
2023/02/17 11:23:00;;;;;;;15.13;8.47;;;;;;;;;;6186543;28;20289;-78
2023/02/17 11:26:17;;;;;;;17.10;8.47;;;;;;;;;;6187469;28;20317;-79
2023/02/17 11:29:23;;;;;;;24.53;9.43;;;;;;;;;;6185652;28;20305;-76
2023/02/17 11:32:32;;;;;;;19.83;9.67;;;;;;;;;;6186469;28;20297;-78
2023/02/17 11:35:47;;;;;;;27.50;10.20;;;;;;;;;;6185906;28;20301;-77
2023/02/17 11:38:52;;;;;;;28.23;10.17;;;;;;;;;;6186536;28;20306;-78
2023/02/17 11:41:59;;;;;;;19.33;10.43;;;;;;;;;;6187262;28;20305;-79
2023/02/17 11:45:16;;;;;;;25.37;11.03;;;;;;;;;;6186479;28;20301;-77
2023/02/17 11:48:37;;;;;;;27.20;10.40;;;;;;;;;;6187084;28;20294;-77
2023/02/17 11:51:53;;;;;;;24.77;12.33;;;;;;;;;;6201578;28;20292;-77
2023/02/17 11:55:09;;;;;;;25.50;11.93;;;;;;;;;;6201472;28;20304;-78
2023/02/17 11:58:29;;;;;;;28.83;11.33;;;;;;;;;;6186520;28;20297;-77
2023/02/17 12:01:48;;;;;;;26.43;11.93;;;;;;;;;;6187043;28;20296;-78
2023/02/17 12:05:06;;;;;;;27.47;11.80;;;;;;;;;;6185643;28;20308;-78
2023/02/17 12:08:20;;;;;;;33.07;13.03;;;;;;;;;;6186160;28;20362;-78
2023/02/17 12:11:30;;;;;;;33.47;13.70;;;;;;;;;;6203009;28;20579;-78
2023/02/17 12:14:49;;;;;;;32.27;14.20;;;;;;;;;;6190167;28;20299;-78
2023/02/17 12:18:00;;;;;;;31.93;13.50;;;;;;;;;;6189335;28;20291;-78
2023/02/17 12:21:09;;;;;;;35.47;14.43;;;;;;;;;;6191039;28;20572;-78
2023/02/17 12:24:35;;;;;;;39.73;15.87;;;;;;;;;;6191014;28;20295;-77
2023/02/17 12:27:50;;;;;;;37.47;15.80;;;;;;;;;;6190204;28;20306;-78
2023/02/17 12:31:03;;;;;;;35.40;15.00;;;;;;;;;;6206522;28;20302;-79
2023/02/17 12:34:16;;;;;;;33.77;16.07;;;;;;;;;;6190370;28;20303;-79
2023/02/17 12:37:25;;;;;;;38.37;15.97;;;;;;;;;;6189916;28;20291;-78
2023/02/17 12:40:35;;;;;;;38.93;16.20;;;;;;;;;;6191053;28;20304;-80
2023/02/17 12:43:44;;;;;;;42.13;16.63;;;;;;;;;;6190505;28;20296;-78
2023/02/17 12:46:56;;;;;;;42.47;17.00;;;;;;;;;;6190736;28;20303;-79
2023/02/17 12:50:05;;;;;;;39.03;17.30;;;;;;;;;;6190304;28;20571;-78
2023/02/17 12:53:15;;;;;;;44.27;18.47;;;;;;;;;;6190440;28;20374;-78
2023/02/17 12:56:44;;;;;;;45.87;18.73;;;;;;;;;;6190954;28;20299;-78
2023/02/17 12:59:51;;;;;;;47.10;18.77;;;;;;;;;;6188263;28;20311;-79
2023/02/17 13:03:00;;;;;;;46.60;18.97;;;;;;;;;;6190017;28;20302;-78
2023/02/17 13:06:17;;;;;;;48.20;20.57;;;;;;;;;;6190459;28;20496;-77
2023/02/17 13:09:30;;;;;;;48.63;19.83;;;;;;;;;;6190497;28;20295;-77
2023/02/17 13:12:41;;;;;;;51.67;19.50;;;;;;;;;;6190590;28;20315;-79
2023/02/17 13:15:47;;;;;;;56.70;20.50;;;;;;;;;;6214577;28;20300;-77
2023/02/17 13:18:54;;;;;;;39.53;17.20;;;;;;;;;;6214062;28;20582;-78
2023/02/17 13:22:01;;;;;;;40.00;18.20;;;;;;;;;;6213882;28;20300;-78
2023/02/17 13:25:06;;;;;;;47.50;19.53;;;;;;;;;;6213862;28;20294;-77
2023/02/17 13:28:34;;;;;;;46.60;18.03;;;;;;;;;;6213458;28;20300;-77
2023/02/17 13:31:48;;;;;;;45.57;17.53;;;;;;;;;;6211386;28;20299;-77
2023/02/17 13:35:04;;;;;;;40.00;16.57;;;;;;;;;;6213809;28;20302;-79
2023/02/17 13:38:12;;;;;;;36.27;15.17;;;;;;;;;;6213541;28;20296;-78
2023/02/17 13:41:17;;;;;;;33.30;12.37;;;;;;;;;;6213742;28;20299;-78
2023/02/17 13:44:29;;;;;;;29.53;13.73;;;;;;;;;;6213050;28;20306;-78
2023/02/17 13:47:36;;;;;;;26.90;12.37;;;;;;;;;;6213209;28;20294;-78
2023/02/17 13:50:47;;;;;;;29.67;12.97;;;;;;;;;;6212360;28;20277;-78
2023/02/17 13:53:52;;;;;;;22.10;10.83;;;;;;;;;;6213213;28;20319;-78
2023/02/17 13:56:58;;;;;;;24.97;10.77;;;;;;;;;;6212255;28;20298;-78
2023/02/17 14:00:22;;;;;;;22.90;9.70;;;;;;;;;;6213215;28;20456;-77
2023/02/17 14:03:31;;;;;;;19.73;9.73;;;;;;;;;;6212175;28;20304;-78
2023/02/17 14:06:39;;;;;;;23.93;11.27;;;;;;;;;;6213361;28;20334;-77
2023/02/17 14:09:44;;;;;;;25.20;12.30;;;;;;;;;;6210162;28;20302;-77
2023/02/17 14:12:50;;;;;;;24.60;11.73;;;;;;;;;;6203178;28;20313;-77
2023/02/17 14:15:57;;;;;;;22.73;10.90;;;;;;;;;;6211439;28;20374;-77
2023/02/17 14:19:04;;;;;;;25.57;12.03;;;;;;;;;;6212705;28;20312;-79
2023/02/17 14:22:27;;;;;;;28.80;12.73;;;;;;;;;;6211551;28;20310;-78
2023/02/17 14:25:35;;;;;;;29.17;12.57;;;;;;;;;;6212505;28;20300;-79
2023/02/17 14:28:40;;;;;;;28.13;12.53;;;;;;;;;;6212351;28;20293;-79
2023/02/17 14:31:48;;;;;;;29.43;12.17;;;;;;;;;;6212708;28;20287;-79
2023/02/17 14:34:54;;;;;;;34.27;13.00;;;;;;;;;;6211707;28;20310;-79
2023/02/17 14:38:16;;;;;;;32.40;12.90;;;;;;;;;;6212205;28;20303;-79
2023/02/17 14:41:22;;;;;;;29.80;13.30;;;;;;;;;;6227406;28;20292;-79
2023/02/17 14:44:27;;;;;;;30.47;12.80;;;;;;;;;;6226954;28;20298;-78
2023/02/17 14:47:32;;;;;;;36.57;14.00;;;;;;;;;;6212386;28;20292;-79
2023/02/17 14:50:41;;;;;;;33.37;13.37;;;;;;;;;;6184655;28;20320;-79
2023/02/17 14:53:48;;;;;;;32.47;14.07;;;;;;;;;;6211934;28;20303;-80
2023/02/17 14:56:59;;;;;;;34.30;14.07;;;;;;;;;;6212390;28;20275;-80
2023/02/17 15:00:08;;;;;;;26.47;12.63;;;;;;;;;;6212256;28;20292;-79
2023/02/17 15:03:15;;;;;;;32.87;13.43;;;;;;;;;;6211377;28;20313;-80
2023/02/17 15:06:22;;;;;;;29.87;11.50;;;;;;;;;;6210892;28;20296;-79
2023/02/17 15:09:33;;;;;;;32.13;13.23;;;;;;;;;;6209654;28;20298;-79
2023/02/17 15:12:42;;;;;;;27.23;12.37;;;;;;;;;;6200752;28;20296;-79
2023/02/17 15:15:48;;;;;;;28.93;12.20;;;;;;;;;;6227070;28;20301;-80
2023/02/17 15:18:54;;;;;;;34.90;13.40;;;;;;;;;;6211776;28;20300;-79
2023/02/17 15:22:00;;;;;;;17.57;8.17;;;;;;;;;;6211943;28;20610;-79
2023/02/17 15:25:14;;;;;;;29.67;11.63;;;;;;;;;;6209744;28;20305;-79
2023/02/17 15:28:21;;;;;;;21.03;9.83;;;;;;;;;;6211713;28;20326;-79
2023/02/17 15:31:31;;;;;;;29.17;11.93;;;;;;;;;;6214236;28;20301;-77
2023/02/17 15:34:37;;;;;;;18.30;9.23;;;;;;;;;;6211315;28;20298;-79
2023/02/17 15:37:42;;;;;;;20.47;9.57;;;;;;;;;;6226187;28;20298;-79
2023/02/17 15:40:48;;;;;;;22.43;9.47;;;;;;;;;;6211528;28;20324;-78
2023/02/17 15:43:54;;;;;;;22.73;10.27;;;;;;;;;;6212252;28;20339;-79
2023/02/17 15:47:01;;;;;;;19.00;10.33;;;;;;;;;;6215041;28;20304;-77
2023/02/17 15:50:15;;;;;;;18.73;8.67;;;;;;;;;;6231459;28;20309;-79
2023/02/17 15:53:23;;;;;;;33.87;14.13;;;;;;;;;;6216193;28;20296;-79
2023/02/17 15:56:35;;;;;;;20.97;8.87;;;;;;;;;;6216842;28;20308;-79
2023/02/17 15:59:40;;;;;;;20.23;9.27;;;;;;;;;;6215019;28;20304;-78
2023/02/17 16:02:45;;;;;;;16.60;8.57;;;;;;;;;;6214259;28;20570;-78
2023/02/17 16:05:52;;;;;;;18.23;8.83;;;;;;;;;;6231067;28;20298;-79
2023/02/17 16:08:58;;;;;;;13.57;7.53;;;;;;;;;;6216162;28;20306;-81
2023/02/17 16:12:08;;;;;;;16.57;8.37;;;;;;;;;;6203748;28;20316;-80
2023/02/17 16:15:16;;;;;;;17.60;8.70;;;;;;;;;;6215746;28;20297;-79
2023/02/17 16:18:23;;;;;;;18.73;8.03;;;;;;;;;;6215429;28;20293;-79
2023/02/17 16:21:28;;;;;;;15.23;7.63;;;;;;;;;;6216329;28;20308;-79
2023/02/17 16:24:33;;;;;;;13.80;7.57;;;;;;;;;;6215284;28;20308;-78
2023/02/17 16:27:40;;;;;;;13.23;7.27;;;;;;;;;;6215327;28;20298;-78
2023/02/17 16:30:48;;;;;;;12.97;7.40;;;;;;;;;;6215904;28;20305;-78
2023/02/17 16:33:59;;;;;;;13.40;6.63;;;;;;;;;;6215125;28;20317;-79
2023/02/17 16:37:10;;;;;;;11.63;6.60;;;;;;;;;;6215407;28;20494;-79
2023/02/17 16:40:17;;;;;;;14.10;7.27;;;;;;;;;;6215679;28;20590;-79
2023/02/17 16:43:26;;;;;;;11.93;6.33;;;;;;;;;;6215706;28;20317;-78
2023/02/17 16:46:34;;;;;;;9.80;6.70;;;;;;;;;;6215273;28;20306;-79
2023/02/17 16:49:40;;;;;;;12.80;7.23;;;;;;;;;;6213718;28;20301;-77
2023/02/17 16:52:46;;;;;;;13.00;6.77;;;;;;;;;;6213237;28;20493;-78
2023/02/17 16:55:51;;;;;;;11.20;6.57;;;;;;;;;;6214272;28;20294;-77
2023/02/17 16:58:58;;;;;;;13.83;6.37;;;;;;;;;;6212893;28;20295;-77
2023/02/17 17:02:04;;;;;;;6.83;6.00;;;;;;;;;;6215107;28;20302;-78
2023/02/17 17:05:10;;;;;;;9.97;6.33;;;;;;;;;;6214292;28;20490;-78
2023/02/17 17:08:16;;;;;;;11.90;6.20;;;;;;;;;;6214041;28;20296;-78
2023/02/17 17:11:27;;;;;;;10.37;5.13;;;;;;;;;;6201812;28;20289;-78
2023/02/17 17:14:35;;;;;;;6.13;5.50;;;;;;;;;;6214207;28;20295;-78
2023/02/17 17:17:43;;;;;;;6.30;5.17;;;;;;;;;;6213238;28;20271;-78
2023/02/17 17:20:50;;;;;;;4.63;4.20;;;;;;;;;;6214318;28;20302;-77
2023/02/17 17:23:55;;;;;;;5.20;4.80;;;;;;;;;;6214211;28;20371;-78
2023/02/17 17:27:00;;;;;;;5.40;4.90;;;;;;;;;;6214122;28;20286;-78
2023/02/17 17:30:09;;;;;;;4.53;4.20;;;;;;;;;;6214056;28;20298;-77
2023/02/17 17:33:14;;;;;;;3.57;3.30;;;;;;;;;;6213958;28;20349;-77
2023/02/17 17:36:23;;;;;;;3.63;3.10;;;;;;;;;;6212584;28;20291;-77
2023/02/17 17:39:28;;;;;;;3.70;3.33;;;;;;;;;;6213685;28;20293;-77
2023/02/17 17:42:36;;;;;;;3.00;2.90;;;;;;;;;;6211982;28;20291;-78
2023/02/17 17:45:43;;;;;;;2.70;2.60;;;;;;;;;;6213807;28;20310;-77
2023/02/17 17:48:49;;;;;;;2.43;2.33;;;;;;;;;;6213741;28;20376;-78
2023/02/17 17:51:54;;;;;;;2.07;1.90;;;;;;;;;;6212620;28;20573;-77
2023/02/17 17:54:59;;;;;;;1.90;1.80;;;;;;;;;;6213746;28;20299;-78
2023/02/17 17:58:04;;;;;;;1.83;1.83;;;;;;;;;;6212908;28;20323;-77
2023/02/17 18:01:13;;;;;;;2.17;2.13;;;;;;;;;;6213330;28;20306;-79
2023/02/17 18:04:18;;;;;;;2.23;2.23;;;;;;;;;;6212770;28;20311;-78
2023/02/17 18:07:23;;;;;;;2.10;2.00;;;;;;;;;;6212403;28;20297;-78
2023/02/17 18:10:28;;;;;;;2.10;2.10;;;;;;;;;;6210974;28;20303;-77
2023/02/17 18:13:33;;;;;;;2.37;2.20;;;;;;;;;;6208376;28;20296;-77
2023/02/17 18:16:41;;;;;;;2.43;2.33;;;;;;;;;;6213137;28;20294;-77
2023/02/17 18:19:46;;;;;;;2.30;2.20;;;;;;;;;;6212611;28;20305;-78
2023/02/17 18:22:51;;;;;;;2.40;2.30;;;;;;;;;;6212396;28;20303;-78
2023/02/17 18:25:57;;;;;;;2.00;2.00;;;;;;;;;;6212997;28;20292;-78
2023/02/17 18:29:03;;;;;;;2.07;2.00;;;;;;;;;;6210707;28;20480;-77
2023/02/17 18:32:13;;;;;;;2.10;2.10;;;;;;;;;;6212485;28;20315;-77